Time;durP1;ratioP1;P1;durP2;ratioP2;P2;SDS_P1;SDS_P2;PMS_P1;PMS_P2;Temp;Humidity;BMP_temperature;BMP_pressure;BME280_temperature;BME280_humidity;BME280_pressure;Samples;Min_cycle;Max_cycle;Signal;HPM_P1;HPM_P2
2023/06/27 00:01:04;;;;;;;2.42;0.75;;;14.50;1.00;;;;;;5054784;28;20040;-63
2023/06/27 00:03:36;;;;;;;3.05;1.15;;;14.50;1.00;;;;;;5054440;28;20140;-63
2023/06/27 00:06:04;;;;;;;2.35;0.90;;;14.50;1.00;;;;;;5054717;28;20504;-63
2023/06/27 00:08:32;;;;;;;1.02;0.75;;;14.50;1.00;;;;;;5053473;28;20033;-63
2023/06/27 00:10:58;;;;;;;1.02;0.82;;;14.70;1.00;;;;;;5054295;28;20029;-63
2023/06/27 00:13:24;;;;;;;1.40;0.70;;;14.50;1.00;;;;;;5054501;28;20051;-63
2023/06/27 00:15:52;;;;;;;3.17;1.00;;;14.50;1.00;;;;;;5054456;28;20511;-63
2023/06/27 00:18:21;;;;;;;1.70;0.75;;;14.50;1.00;;;;;;5054152;28;20041;-66
2023/06/27 00:20:50;;;;;;;1.13;0.90;;;14.50;1.00;;;;;;5054376;28;20048;-63
2023/06/27 00:23:21;;;;;;;1.45;0.90;;;14.40;1.00;;;;;;5054370;28;20037;-63
2023/06/27 00:25:47;;;;;;;2.33;1.00;;;14.50;1.00;;;;;;5053918;28;20037;-63
2023/06/27 00:28:13;;;;;;;1.75;0.98;;;14.40;1.00;;;;;;5054257;28;20469;-63
2023/06/27 00:30:39;;;;;;;1.45;0.95;;;14.40;1.00;;;;;;5053795;28;20090;-63
2023/06/27 00:33:04;;;;;;;0.73;0.73;;;15.00;1.00;;;;;;5054133;28;20044;-63
2023/06/27 00:35:33;;;;;;;2.85;1.38;;;14.40;1.00;;;;;;5053815;28;20641;-63
2023/06/27 00:38:00;;;;;;;2.88;1.20;;;14.40;1.00;;;;;;5053719;28;20037;-63
2023/06/27 00:40:25;;;;;;;3.72;0.80;;;14.40;1.00;;;;;;5053889;28;20043;-63
2023/06/27 00:42:51;;;;;;;2.13;0.98;;;14.40;1.00;;;;;;5054002;28;20116;-63
2023/06/27 00:45:17;;;;;;;2.30;0.90;;;14.40;1.00;;;;;;5053844;28;20165;-63
2023/06/27 00:47:43;;;;;;;1.40;0.80;;;14.30;1.00;;;;;;5053537;28;20053;-63
2023/06/27 00:50:09;;;;;;;1.55;0.93;;;14.30;1.00;;;;;;5053807;28;20045;-63
2023/06/27 00:52:36;;;;;;;1.92;1.00;;;14.30;1.00;;;;;;5053768;28;20029;-63
2023/06/27 00:55:03;;;;;;;1.65;0.98;;;14.30;1.00;;;;;;5053748;28;20043;-63
2023/06/27 00:57:29;;;;;;;1.27;0.95;;;14.30;1.00;;;;;;5053531;28;20037;-63
2023/06/27 00:59:55;;;;;;;5.43;1.25;;;14.30;1.00;;;;;;5053640;28;20094;-63
2023/06/27 01:02:23;;;;;;;1.67;0.90;;;14.20;1.00;;;;;;5053629;28;20043;-63
2023/06/27 01:04:50;;;;;;;1.85;0.95;;;14.20;1.00;;;;;;5053001;28;20135;-63
2023/06/27 01:07:27;;;;;;;1.90;0.93;;;14.20;1.00;;;;;;5053591;28;20033;-63
2023/06/27 01:09:58;;;;;;;1.38;0.90;;;14.10;1.00;;;;;;5052231;28;20040;-63
2023/06/27 01:12:35;;;;;;;1.02;0.75;;;14.10;1.00;;;;;;5053160;28;20041;-63
2023/06/27 01:15:03;;;;;;;2.85;1.05;;;14.10;1.00;;;;;;5053451;28;20040;-63
2023/06/27 01:17:32;;;;;;;2.70;1.10;;;14.00;1.00;;;;;;5053383;28;20412;-63
2023/06/27 01:20:00;;;;;;;1.23;0.80;;;13.90;1.00;;;;;;5053515;28;20494;-63
2023/06/27 01:22:42;;;;;;;1.55;0.98;;;14.00;1.00;;;;;;5053305;28;20040;-63
2023/06/27 01:25:11;;;;;;;1.75;1.17;;;14.00;1.00;;;;;;5053157;28;20041;-63
2023/06/27 01:27:37;;;;;;;1.40;0.75;;;14.00;1.00;;;;;;5053091;28;20037;-63
2023/06/27 01:30:04;;;;;;;3.72;1.00;;;14.00;1.00;;;;;;5053085;28;20166;-63
2023/06/27 01:32:39;;;;;;;1.90;1.00;;;14.00;1.00;;;;;;5053138;28;20452;-63
2023/06/27 01:35:19;;;;;;;4.97;1.00;;;13.90;1.00;;;;;;5053061;28;20045;-63
2023/06/27 01:37:52;;;;;;;4.45;1.38;;;14.00;1.00;;;;;;5053029;28;20106;-63
2023/06/27 01:40:20;;;;;;;1.58;1.02;;;13.90;1.00;;;;;;5053014;28;20032;-63
2023/06/27 01:42:59;;;;;;;1.00;0.77;;;13.90;1.00;;;;;;5053025;28;20049;-63
2023/06/27 01:45:25;;;;;;;1.80;1.15;;;13.90;1.00;;;;;;5052849;28;20465;-63
2023/06/27 01:47:51;;;;;;;1.58;1.00;;;13.90;1.00;;;;;;5052938;28;20385;-63
2023/06/27 01:50:17;;;;;;;2.00;1.08;;;14.30;1.00;;;;;;5051411;28;20052;-63
2023/06/27 01:52:43;;;;;;;5.28;1.15;;;13.90;1.00;;;;;;5052880;28;20044;-63
2023/06/27 01:55:09;;;;;;;1.65;0.95;;;13.90;1.00;;;;;;5052835;28;20041;-63
2023/06/27 01:57:35;;;;;;;1.67;0.98;;;13.80;1.00;;;;;;5052808;28;20090;-63
2023/06/27 02:00:02;;;;;;;1.33;0.93;;;13.80;1.00;;;;;;5052735;28;20033;-63
2023/06/27 02:02:27;;;;;;;1.35;1.00;;;13.80;1.00;;;;;;5051534;28;20519;-64
2023/06/27 02:04:53;;;;;;;1.13;0.80;;;13.80;1.00;;;;;;5051106;28;20161;-63
2023/06/27 02:07:19;;;;;;;1.77;1.17;;;13.80;1.00;;;;;;5052792;28;20098;-63
2023/06/27 02:09:44;;;;;;;3.25;1.33;;;13.80;1.00;;;;;;5052665;28;20040;-63
2023/06/27 02:12:11;;;;;;;2.28;1.10;;;14.60;1.00;;;;;;5052647;28;20519;-63
2023/06/27 02:14:38;;;;;;;3.97;0.90;;;13.90;1.00;;;;;;5052657;28;20049;-63
2023/06/27 02:17:04;;;;;;;2.33;1.05;;;13.80;1.00;;;;;;5052333;28;20076;-63
2023/06/27 02:19:30;;;;;;;1.50;0.88;;;13.80;1.00;;;;;;5051133;28;20044;-63
2023/06/27 02:21:56;;;;;;;3.50;1.33;;;13.80;1.00;;;;;;5051038;28;20044;-63
2023/06/27 02:24:21;;;;;;;1.20;0.82;;;13.80;1.00;;;;;;5052507;28;20439;-63
2023/06/27 02:26:47;;;;;;;1.70;1.23;;;14.50;2.80;;;;;;5052540;28;20040;-63
2023/06/27 02:29:12;;;;;;;1.30;0.90;;;14.40;3.00;;;;;;5052535;28;20033;-63
2023/06/27 02:31:38;;;;;;;2.33;1.05;;;13.80;31.50;;;;;;5052917;28;20041;-63
2023/06/27 02:34:04;;;;;;;1.05;0.90;;;13.80;12.50;;;;;;5056451;28;20502;-63
2023/06/27 02:36:29;;;;;;;1.40;1.00;;;13.80;11.10;;;;;;5056390;28;20036;-63
2023/06/27 02:38:55;;;;;;;1.23;1.10;;;13.70;13.30;;;;;;5056286;28;20076;-63
2023/06/27 02:41:24;;;;;;;2.40;1.35;;;14.10;9.00;;;;;;5055992;28;20053;-63
2023/06/27 02:43:50;;;;;;;1.98;1.00;;;13.70;13.40;;;;;;5056233;28;20114;-63
2023/06/27 02:46:16;;;;;;;1.95;1.20;;;13.80;20.40;;;;;;5056244;28;20037;-63
2023/06/27 02:48:41;;;;;;;6.78;1.23;;;13.80;15.10;;;;;;5056179;28;20392;-63
2023/06/27 02:51:07;;;;;;;4.68;1.20;;;13.80;21.40;;;;;;5055770;28;20033;-63
2023/06/27 02:53:33;;;;;;;0.80;0.80;;;13.80;30.00;;;;;;5056102;28;20029;-63
2023/06/27 02:56:02;;;;;;;4.00;1.25;;;13.70;54.70;;;;;;5055885;28;20447;-63
2023/06/27 02:58:29;;;;;;;1.33;1.15;;;13.70;83.90;;;;;;5055974;28;20037;-63
2023/06/27 03:00:54;;;;;;;2.92;1.10;;;13.60;80.30;;;;;;5055923;28;20068;-63
2023/06/27 03:03:20;;;;;;;1.60;1.10;;;13.70;99.90;;;;;;5055672;28;20527;-63
2023/06/27 03:05:45;;;;;;;1.20;0.95;;;13.60;99.90;;;;;;5055849;28;20710;-63
2023/06/27 03:08:11;;;;;;;2.20;0.90;;;13.60;99.90;;;;;;5055778;28;20087;-63
2023/06/27 03:10:37;;;;;;;3.00;1.65;;;13.60;99.90;;;;;;5055731;28;20040;-63
2023/06/27 03:13:02;;;;;;;0.80;0.80;;;13.60;99.90;;;;;;5055720;28;20033;-63
2023/06/27 03:15:28;;;;;;;3.25;1.30;;;13.60;99.90;;;;;;5055652;28;20041;-63
2023/06/27 03:17:54;;;;;;;1.73;1.15;;;13.60;99.90;;;;;;5055579;28;20480;-63
2023/06/27 03:20:20;;;;;;;3.03;1.95;;;13.60;99.90;;;;;;5055367;28;20064;-63
2023/06/27 03:22:46;;;;;;;2.75;1.25;;;13.50;99.90;;;;;;5055559;28;20163;-62
2023/06/27 03:25:12;;;;;;;3.03;1.48;;;13.60;99.90;;;;;;5055454;28;20580;-63
2023/06/27 03:27:37;;;;;;;2.40;1.20;;;13.50;99.90;;;;;;5055412;28;20061;-63
2023/06/27 03:30:04;;;;;;;1.70;1.23;;;13.60;99.90;;;;;;5055371;28;20071;-62
2023/06/27 03:32:30;;;;;;;1.52;1.10;;;13.60;99.90;;;;;;5055304;28;20476;-63
2023/06/27 03:34:55;;;;;;;1.55;1.17;;;13.60;99.90;;;;;;5055230;28;20033;-63
2023/06/27 03:37:21;;;;;;;1.58;0.73;;;13.60;99.90;;;;;;5055232;28;20045;-62
2023/06/27 03:39:47;;;;;;;1.35;0.80;;;13.60;99.90;;;;;;5054788;28;20045;-62
2023/06/27 03:42:12;;;;;;;2.22;1.33;;;13.60;99.90;;;;;;5054054;28;20044;-62
2023/06/27 03:44:38;;;;;;;2.25;1.23;;;13.60;99.90;;;;;;5054514;28;20107;-62
2023/06/27 03:47:04;;;;;;;1.67;1.38;;;13.60;99.90;;;;;;5054976;28;20052;-62
2023/06/27 03:49:30;;;;;;;2.38;1.42;;;13.60;99.90;;;;;;5054967;28;20036;-62
2023/06/27 03:51:56;;;;;;;1.13;0.93;;;13.60;99.90;;;;;;5054880;28;20392;-63
2023/06/27 03:54:21;;;;;;;5.40;1.67;;;13.60;99.90;;;;;;5054776;28;20040;-62
2023/06/27 03:56:48;;;;;;;2.58;1.50;;;13.70;99.90;;;;;;5054785;28;20448;-62
2023/06/27 03:59:13;;;;;;;3.45;1.50;;;13.60;99.90;;;;;;5054722;28;20048;-62
2023/06/27 04:01:42;;;;;;;3.38;1.30;;;13.70;99.90;;;;;;5054671;28;20484;-62
2023/06/27 04:04:08;;;;;;;2.70;1.60;;;13.70;99.90;;;;;;5054355;28;20485;-62
2023/06/27 04:06:34;;;;;;;2.13;1.40;;;13.80;99.90;;;;;;5054277;28;20043;-62
2023/06/27 04:09:02;;;;;;;1.98;1.45;;;13.90;99.90;;;;;;5054538;28;20044;-64
2023/06/27 04:11:28;;;;;;;2.33;1.45;;;13.80;99.90;;;;;;5054581;28;20047;-63
2023/06/27 04:13:54;;;;;;;2.03;1.58;;;13.80;99.90;;;;;;5053207;28;20167;-62
2023/06/27 04:16:20;;;;;;;2.15;1.52;;;13.80;99.90;;;;;;5054483;28;20054;-62
2023/06/27 04:18:46;;;;;;;2.30;1.60;;;13.80;99.90;;;;;;5054323;28;20041;-63
2023/06/27 04:21:11;;;;;;;1.67;1.35;;;13.90;99.90;;;;;;5054263;28;20048;-62
2023/06/27 04:23:37;;;;;;;4.22;1.80;;;13.90;99.90;;;;;;5052685;28;20552;-62
2023/06/27 04:26:07;;;;;;;1.90;1.33;;;14.60;99.90;;;;;;5054247;28;20033;-62
2023/06/27 04:28:36;;;;;;;2.72;1.52;;;14.00;99.90;;;;;;5052958;28;20114;-62
2023/06/27 04:31:02;;;;;;;3.72;1.63;;;14.10;99.90;;;;;;5054143;28;20033;-62
2023/06/27 04:33:29;;;;;;;2.47;1.42;;;14.10;99.90;;;;;;5054152;28;20033;-62
2023/06/27 04:36:00;;;;;;;5.03;1.50;;;14.40;99.90;;;;;;5053803;28;20051;-62
2023/06/27 04:38:27;;;;;;;1.80;1.25;;;14.40;99.90;;;;;;5054064;28;20111;-62
2023/06/27 04:40:52;;;;;;;2.00;1.40;;;14.30;99.90;;;;;;5053962;28;20033;-62
2023/06/27 04:43:18;;;;;;;2.35;1.88;;;14.40;99.90;;;;;;5053602;28;20037;-62
2023/06/27 04:45:43;;;;;;;1.27;1.13;;;14.40;99.90;;;;;;5053705;28;20083;-62
2023/06/27 04:48:09;;;;;;;2.20;1.48;;;14.50;99.90;;;;;;5052601;28;20055;-62
2023/06/27 04:50:35;;;;;;;7.68;2.05;;;14.50;99.90;;;;;;5053451;28;20029;-63
2023/06/27 04:53:03;;;;;;;1.80;1.10;;;14.60;99.90;;;;;;5053787;28;20086;-62
2023/06/27 04:55:29;;;;;;;3.05;1.60;;;14.70;99.90;;;;;;5068423;28;20036;-65
2023/06/27 04:57:55;;;;;;;2.28;1.55;;;14.70;99.90;;;;;;5053610;28;20041;-62
2023/06/27 05:00:21;;;;;;;3.42;1.20;;;14.80;99.90;;;;;;5053571;28;20044;-62
2023/06/27 05:02:46;;;;;;;4.60;1.73;;;14.90;99.90;;;;;;5053583;28;20440;-62
2023/06/27 05:05:12;;;;;;;2.90;1.20;;;15.00;99.90;;;;;;5053025;28;20144;-63
2023/06/27 05:07:37;;;;;;;4.50;1.65;;;15.10;99.90;;;;;;5053434;28;20362;-62
2023/06/27 05:10:03;;;;;;;3.53;1.20;;;15.10;99.90;;;;;;5053480;28;20045;-63
2023/06/27 05:12:29;;;;;;;3.67;1.45;;;15.20;99.90;;;;;;5053419;28;20446;-63
2023/06/27 05:14:54;;;;;;;2.47;1.45;;;15.30;99.90;;;;;;5051779;28;20033;-62
2023/06/27 05:17:20;;;;;;;2.13;1.30;;;15.30;99.90;;;;;;5053259;28;20037;-64
2023/06/27 05:19:45;;;;;;;1.80;1.35;;;15.90;99.90;;;;;;5035036;28;20047;-66
2023/06/27 05:22:12;;;;;;;1.58;1.33;;;15.60;99.90;;;;;;5053435;28;20484;-66
2023/06/27 05:24:37;;;;;;;8.05;1.75;;;15.60;99.90;;;;;;5053131;28;20515;-66
2023/06/27 05:27:03;;;;;;;2.22;1.17;;;15.70;99.90;;;;;;5053226;28;20040;-66
2023/06/27 05:29:29;;;;;;;1.88;1.30;;;15.80;99.90;;;;;;5053269;28;20052;-67
2023/06/27 05:31:54;;;;;;;1.80;1.25;;;15.90;99.90;;;;;;5051550;28;20072;-67
2023/06/27 05:34:20;;;;;;;1.42;1.10;;;17.00;99.90;;;;;;5053142;28;20048;-67
2023/06/27 05:36:45;;;;;;;3.10;1.10;;;16.10;99.90;;;;;;5053025;28;20052;-65
2023/06/27 05:39:11;;;;;;;3.20;1.38;;;16.90;99.90;;;;;;5053101;28;20550;-65
2023/06/27 05:41:37;;;;;;;1.48;0.82;;;16.30;99.90;;;;;;5052640;28;20037;-64
2023/06/27 05:44:02;;;;;;;1.83;1.10;;;16.40;99.90;;;;;;5052534;28;20045;-64
2023/06/27 05:46:28;;;;;;;2.13;1.33;;;16.60;99.90;;;;;;5052935;28;20037;-67
2023/06/27 05:48:53;;;;;;;1.70;1.17;;;16.70;92.90;;;;;;5052811;28;20191;-68
2023/06/27 05:51:20;;;;;;;1.77;1.25;;;17.50;78.90;;;;;;5052846;28;20486;-71
2023/06/27 05:53:45;;;;;;;2.08;1.13;;;16.90;63.90;;;;;;5052828;28;20036;-64
2023/06/27 05:56:11;;;;;;;1.33;0.88;;;17.00;55.90;;;;;;5052868;28;20052;-65
2023/06/27 05:58:36;;;;;;;5.47;1.00;;;17.10;44.00;;;;;;5052789;28;20099;-72
2023/06/27 06:01:02;;;;;;;2.35;1.60;;;17.20;21.80;;;;;;5051229;28;20037;-70
2023/06/27 06:03:28;;;;;;;3.65;1.42;;;17.30;16.50;;;;;;5052376;28;20049;-69
2023/06/27 06:05:53;;;;;;;1.45;1.10;;;17.40;9.30;;;;;;5053516;28;20079;-68
2023/06/27 06:08:19;;;;;;;2.35;1.00;;;17.50;1.40;;;;;;5056588;28;20396;-68
2023/06/27 06:10:45;;;;;;;2.42;0.98;;;17.60;1.00;;;;;;5056509;28;20033;-68
2023/06/27 06:13:11;;;;;;;1.13;0.68;;;17.60;1.00;;;;;;5055516;28;20041;-67
2023/06/27 06:15:37;;;;;;;5.55;1.23;;;17.80;1.00;;;;;;5056556;28;20043;-67
2023/06/27 06:18:03;;;;;;;0.77;0.77;;;18.00;1.00;;;;;;5056433;28;20041;-66
2023/06/27 06:20:29;;;;;;;6.25;1.30;;;18.20;1.00;;;;;;5056286;28;20045;-64
2023/06/27 06:22:55;;;;;;;1.42;0.77;;;18.20;1.00;;;;;;5056614;28;20124;-65
2023/06/27 06:25:21;;;;;;;7.07;0.70;;;18.30;1.00;;;;;;5056554;28;20150;-64
2023/06/27 06:27:47;;;;;;;3.00;0.80;;;18.20;1.00;;;;;;5056496;28;20086;-65
2023/06/27 06:30:12;;;;;;;1.42;1.10;;;18.40;1.00;;;;;;5056559;28;20080;-65
2023/06/27 06:32:38;;;;;;;3.33;1.00;;;18.40;1.00;;;;;;5056147;28;20041;-64
2023/06/27 06:35:04;;;;;;;2.75;1.13;;;18.60;1.00;;;;;;5056470;28;20571;-64
2023/06/27 06:37:30;;;;;;;1.05;0.88;;;18.70;1.00;;;;;;5056449;28;20040;-65
2023/06/27 06:39:55;;;;;;;0.75;0.75;;;18.50;1.00;;;;;;5056569;28;20047;-67
2023/06/27 06:42:21;;;;;;;3.67;1.02;;;18.90;1.00;;;;;;5054699;28;20122;-65
2023/06/27 06:44:48;;;;;;;2.75;0.90;;;18.90;1.00;;;;;;5056092;28;20045;-65
2023/06/27 06:47:14;;;;;;;0.63;0.63;;;19.00;1.00;;;;;;5056219;28;20045;-65
2023/06/27 06:49:39;;;;;;;0.60;0.50;;;19.00;1.00;;;;;;5056184;28;20041;-65
2023/06/27 06:52:05;;;;;;;2.13;0.98;;;19.00;1.00;;;;;;5056084;28;20068;-65
2023/06/27 06:54:31;;;;;;;6.38;0.88;;;19.20;1.00;;;;;;5054743;28;20041;-65
2023/06/27 06:56:56;;;;;;;2.05;0.80;;;19.10;1.00;;;;;;5054538;28;20551;-65
2023/06/27 06:59:22;;;;;;;1.67;0.82;;;19.90;1.00;;;;;;5055953;28;20037;-65
2023/06/27 07:01:47;;;;;;;1.40;0.55;;;19.60;1.00;;;;;;5054385;28;20040;-65
2023/06/27 07:04:13;;;;;;;2.38;0.63;;;19.60;1.00;;;;;;5054132;28;20056;-65
2023/06/27 07:06:39;;;;;;;1.52;0.75;;;19.80;1.00;;;;;;5055850;28;20048;-65
2023/06/27 07:09:04;;;;;;;1.92;0.70;;;19.90;1.00;;;;;;5055498;28;20408;-65
2023/06/27 07:11:30;;;;;;;1.02;0.45;;;19.90;1.00;;;;;;5055516;28;20499;-65
2023/06/27 07:13:56;;;;;;;2.10;0.68;;;20.10;1.00;;;;;;5055391;28;20116;-67
2023/06/27 07:16:21;;;;;;;1.20;0.57;;;20.20;1.00;;;;;;5055106;28;20045;-65
2023/06/27 07:18:47;;;;;;;2.33;0.60;;;20.30;1.00;;;;;;5055576;28;20091;-65
2023/06/27 07:21:13;;;;;;;0.50;0.40;;;20.40;1.00;;;;;;5055564;28;20044;-65
2023/06/27 07:23:38;;;;;;;1.17;0.65;;;20.40;1.00;;;;;;5055122;28;20045;-65
2023/06/27 07:26:04;;;;;;;1.13;0.70;;;20.10;1.00;;;;;;5055464;28;20029;-65
2023/06/27 07:28:30;;;;;;;1.70;0.63;;;20.20;1.00;;;;;;5055231;28;20051;-65
2023/06/27 07:30:56;;;;;;;2.45;0.80;;;20.50;1.00;;;;;;5055493;28;20095;-65
2023/06/27 07:33:21;;;;;;;0.52;0.40;;;20.00;1.00;;;;;;5055438;28;20424;-65
2023/06/27 07:35:47;;;;;;;0.75;0.55;;;20.10;1.00;;;;;;5053741;28;20098;-65
2023/06/27 07:38:16;;;;;;;1.17;0.60;;;20.00;1.00;;;;;;5055215;28;20039;-65
2023/06/27 07:40:41;;;;;;;2.90;0.43;;;20.00;1.00;;;;;;5054899;28;20449;-67
2023/06/27 07:43:07;;;;;;;2.55;0.90;;;19.80;1.00;;;;;;5055133;28;20120;-65
2023/06/27 07:45:32;;;;;;;1.65;0.52;;;20.10;1.00;;;;;;5055053;28;20051;-65
2023/06/27 07:47:58;;;;;;;0.52;0.40;;;20.20;1.00;;;;;;5055074;28;20095;-65
2023/06/27 07:50:24;;;;;;;0.50;0.50;;;19.80;1.00;;;;;;5055004;28;20514;-65
2023/06/27 07:52:49;;;;;;;1.73;0.60;;;20.20;1.00;;;;;;5053406;28;20037;-65
2023/06/27 07:55:15;;;;;;;1.60;0.60;;;20.30;1.00;;;;;;5054944;28;20476;-65
2023/06/27 07:57:41;;;;;;;2.00;0.55;;;20.50;1.00;;;;;;5054904;28;20037;-65
2023/06/27 08:00:07;;;;;;;1.42;0.40;;;20.60;1.00;;;;;;5054609;28;20041;-65
2023/06/27 08:02:33;;;;;;;5.72;0.60;;;20.90;1.00;;;;;;5054853;28;20052;-65
2023/06/27 08:04:59;;;;;;;0.47;0.47;;;21.10;1.00;;;;;;5054287;28;20056;-66
2023/06/27 08:07:24;;;;;;;0.30;0.30;;;21.00;1.00;;;;;;5054721;28;20036;-66
2023/06/27 08:09:50;;;;;;;0.80;0.30;;;21.10;1.00;;;;;;5054684;28;20029;-65
2023/06/27 08:12:15;;;;;;;1.33;0.50;;;21.50;1.00;;;;;;5054715;28;20068;-66
2023/06/27 08:14:43;;;;;;;5.97;0.57;;;21.30;1.00;;;;;;5054548;28;20115;-66
2023/06/27 08:17:08;;;;;;;0.40;0.40;;;21.40;1.00;;;;;;5054279;28;20040;-66
2023/06/27 08:19:34;;;;;;;3.22;0.77;;;21.50;1.00;;;;;;5054475;28;20044;-66
2023/06/27 08:22:00;;;;;;;0.40;0.40;;;21.50;1.00;;;;;;5054503;28;20073;-66
2023/06/27 08:24:25;;;;;;;1.30;0.70;;;21.40;1.00;;;;;;5053984;28;20099;-66
2023/06/27 08:26:54;;;;;;;0.50;0.50;;;21.50;1.00;;;;;;5054335;28;20086;-66
2023/06/27 08:29:20;;;;;;;1.85;0.60;;;21.60;1.00;;;;;;5053615;28;20042;-66
2023/06/27 08:31:48;;;;;;;0.55;0.45;;;21.60;1.00;;;;;;5053931;28;20037;-66
2023/06/27 08:34:13;;;;;;;0.63;0.40;;;21.50;1.00;;;;;;5054200;28;20416;-66
2023/06/27 08:36:39;;;;;;;0.63;0.43;;;21.50;1.00;;;;;;5054146;28;20041;-66
2023/06/27 08:39:05;;;;;;;2.35;0.68;;;21.30;1.00;;;;;;5054150;28;20446;-66
2023/06/27 08:41:31;;;;;;;0.30;0.30;;;21.40;1.00;;;;;;5052520;28;20127;-65
2023/06/27 08:43:56;;;;;;;1.27;0.70;;;21.50;1.00;;;;;;5053756;28;20047;-65
2023/06/27 08:46:23;;;;;;;0.82;0.40;;;21.40;1.00;;;;;;5054002;28;20029;-65
2023/06/27 08:48:55;;;;;;;1.25;0.30;;;21.20;1.00;;;;;;5053921;28;20040;-65
2023/06/27 08:51:23;;;;;;;3.17;0.55;;;21.10;1.00;;;;;;5053898;28;20037;-65
2023/06/27 08:53:50;;;;;;;0.50;0.40;;;21.00;1.00;;;;;;5053490;28;20037;-65
2023/06/27 08:56:18;;;;;;;0.85;0.40;;;20.80;1.00;;;;;;5053559;28;20140;-65
2023/06/27 08:58:51;;;;;;;0.63;0.40;;;20.90;1.00;;;;;;5053783;28;20116;-65
2023/06/27 09:01:18;;;;;;;1.33;0.60;;;20.90;1.00;;;;;;5052104;28;20051;-65
2023/06/27 09:03:44;;;;;;;0.98;0.57;;;21.00;1.00;;;;;;5053344;28;20056;-65
2023/06/27 09:06:12;;;;;;;0.82;0.57;;;21.00;1.00;;;;;;5053637;28;20053;-65
2023/06/27 09:08:38;;;;;;;1.10;0.60;;;21.10;1.00;;;;;;5053543;28;20033;-65
2023/06/27 09:11:08;;;;;;;0.40;0.40;;;21.20;1.00;;;;;;5053503;28;20086;-65
2023/06/27 09:13:34;;;;;;;;;;;21.20;1.00;;;;;;5053908;28;20467;-65
2023/06/27 09:16:00;;;;;;;0.93;0.50;;;21.20;1.00;;;;;;5053545;28;19916;-65
2023/06/27 09:18:25;;;;;;;0.40;0.40;;;21.20;1.00;;;;;;5053329;28;20040;-65
2023/06/27 09:20:54;;;;;;;1.17;0.55;;;21.30;1.00;;;;;;5053066;28;20094;-65
2023/06/27 09:23:20;;;;;;;1.15;0.40;;;21.00;1.00;;;;;;5053289;28;20032;-65
2023/06/27 09:26:04;;;;;;;0.60;0.40;;;21.50;1.00;;;;;;5053201;28;20530;-65
2023/06/27 09:28:29;;;;;;;0.30;0.30;;;21.60;1.00;;;;;;5052971;28;20090;-65
2023/06/27 09:30:56;;;;;;;0.80;0.40;;;21.90;1.00;;;;;;5053230;28;20032;-65
2023/06/27 09:33:23;;;;;;;0.47;0.40;;;22.10;1.00;;;;;;5053166;28;20041;-65
2023/06/27 09:35:48;;;;;;;0.40;0.30;;;22.10;1.00;;;;;;5053156;28;20048;-68
2023/06/27 09:38:14;;;;;;;2.30;0.40;;;22.10;1.00;;;;;;5053130;28;20524;-65
2023/06/27 09:40:41;;;;;;;0.85;0.32;;;22.20;1.00;;;;;;5053015;28;20440;-65
2023/06/27 09:43:08;;;;;;;0.50;0.40;;;22.00;1.00;;;;;;5052696;28;20044;-65
2023/06/27 09:45:33;;;;;;;2.20;0.75;;;21.90;1.00;;;;;;5052898;28;20377;-65
2023/06/27 09:47:59;;;;;;;0.80;0.45;;;22.10;1.00;;;;;;5053010;28;20095;-65
2023/06/27 09:50:28;;;;;;;1.42;0.47;;;22.10;1.00;;;;;;5052936;28;20032;-65
2023/06/27 09:52:57;;;;;;;0.30;0.30;;;22.10;1.00;;;;;;5052861;28;20041;-65
2023/06/27 09:55:22;;;;;;;1.60;0.47;;;22.10;1.00;;;;;;5052933;28;20469;-65
2023/06/27 09:57:48;;;;;;;1.30;0.40;;;22.20;1.00;;;;;;5052848;28;20124;-65
2023/06/27 10:00:18;;;;;;;1.00;0.47;;;22.00;1.00;;;;;;5052853;28;20472;-65
2023/06/27 10:02:51;;;;;;;0.47;0.30;;;21.80;1.00;;;;;;5052781;28;20485;-65
2023/06/27 10:05:18;;;;;;;1.30;0.45;;;21.60;1.00;;;;;;5052780;28;20374;-65
2023/06/27 10:07:44;;;;;;;0.77;0.50;;;21.50;1.00;;;;;;5052840;28;20107;-65
2023/06/27 10:10:11;;;;;;;0.85;0.50;;;21.50;1.00;;;;;;5052782;28;20041;-65
2023/06/27 10:12:37;;;;;;;1.15;0.75;;;21.20;1.00;;;;;;5052744;28;20029;-65
2023/06/27 10:15:04;;;;;;;1.58;0.60;;;21.60;1.00;;;;;;5051528;28;20045;-65
2023/06/27 10:17:31;;;;;;;1.25;0.40;;;21.60;1.00;;;;;;5052753;28;20048;-65
2023/06/27 10:19:58;;;;;;;0.52;0.35;;;21.60;1.00;;;;;;5052709;28;20037;-65
2023/06/27 10:22:29;;;;;;;0.70;0.30;;;21.60;1.00;;;;;;5052678;28;20472;-65
2023/06/27 10:25:08;;;;;;;0.90;0.40;;;21.60;1.00;;;;;;5052282;28;20099;-65
2023/06/27 10:27:38;;;;;;;1.05;0.43;;;21.60;1.00;;;;;;5052619;28;20126;-68
2023/06/27 10:30:16;;;;;;;0.45;0.30;;;21.50;1.00;;;;;;5051426;28;20071;-66
2023/06/27 10:32:43;;;;;;;0.30;0.30;;;21.40;1.00;;;;;;5052585;28;20120;-70
2023/06/27 10:35:30;;;;;;;1.83;0.77;;;21.40;1.00;;;;;;5052615;28;20115;-66
2023/06/27 10:38:14;;;;;;;1.77;0.80;;;21.50;1.00;;;;;;5051979;28;20067;-65
2023/06/27 10:40:58;;;;;;;0.85;0.30;;;21.50;1.00;;;;;;5052478;28;20044;-65
2023/06/27 10:43:45;;;;;;;1.20;0.82;;;21.90;1.00;;;;;;5052509;28;20044;-65
2023/06/27 10:46:20;;;;;;;1.38;0.52;;;21.70;1.00;;;;;;5052442;28;20435;-66
2023/06/27 10:48:57;;;;;;;1.45;0.52;;;21.80;1.00;;;;;;5052417;28;20041;-67
2023/06/27 10:51:32;;;;;;;1.48;0.65;;;21.50;1.00;;;;;;5052451;28;20434;-65
2023/06/27 10:54:12;;;;;;;2.03;0.60;;;21.60;1.00;;;;;;5054957;28;20044;-65
2023/06/27 10:56:47;;;;;;;0.95;0.50;;;21.60;1.00;;;;;;5055985;28;20064;-65
2023/06/27 10:59:18;;;;;;;0.70;0.35;;;22.10;1.00;;;;;;5055756;28;20041;-65
2023/06/27 11:01:49;;;;;;;2.38;0.55;;;22.10;1.00;;;;;;5054669;28;20079;-65
2023/06/27 11:04:25;;;;;;;2.72;0.55;;;21.90;1.00;;;;;;5055643;28;20509;-65
2023/06/27 11:07:00;;;;;;;0.82;0.43;;;21.90;1.00;;;;;;5054360;28;20070;-65
2023/06/27 11:09:28;;;;;;;0.52;0.40;;;22.10;1.00;;;;;;5055874;28;20495;-65
2023/06/27 11:12:11;;;;;;;0.57;0.40;;;22.50;1.00;;;;;;5054657;28;20055;-65
2023/06/27 11:14:42;;;;;;;2.60;0.47;;;22.20;1.00;;;;;;5055423;28;20052;-65
2023/06/27 11:17:08;;;;;;;0.95;0.60;;;22.10;1.00;;;;;;5055703;28;20036;-65
2023/06/27 11:19:35;;;;;;;2.00;0.60;;;22.20;1.00;;;;;;5055432;28;20044;-65
2023/06/27 11:22:01;;;;;;;2.08;0.70;;;21.70;1.00;;;;;;5055377;28;20040;-72
2023/06/27 11:24:29;;;;;;;2.28;0.60;;;21.90;1.00;;;;;;5055540;28;20033;-74
2023/06/27 11:26:56;;;;;;;1.02;0.50;;;21.90;1.00;;;;;;5053970;28;20045;-65
2023/06/27 11:29:23;;;;;;;0.32;0.32;;;21.70;1.00;;;;;;5055258;28;20041;-65
2023/06/27 11:31:49;;;;;;;0.60;0.45;;;22.30;1.00;;;;;;5055414;28;20040;-65
2023/06/27 11:34:16;;;;;;;0.57;0.47;;;22.20;1.00;;;;;;5054948;28;20120;-65
2023/06/27 11:36:43;;;;;;;0.50;0.50;;;22.00;1.00;;;;;;5055287;28;20040;-65
2023/06/27 11:39:13;;;;;;;1.70;0.45;;;22.00;1.00;;;;;;5055268;28;20045;-65
2023/06/27 11:41:42;;;;;;;2.20;0.45;;;22.10;1.00;;;;;;5055197;28;20076;-65
2023/06/27 11:44:16;;;;;;;1.13;0.85;;;21.90;1.00;;;;;;5054845;28;20048;-65
2023/06/27 11:46:51;;;;;;;2.85;0.40;;;21.90;1.00;;;;;;5055121;28;20087;-65
2023/06/27 11:49:21;;;;;;;0.57;0.30;;;22.00;1.00;;;;;;5055070;28;20033;-65
2023/06/27 11:51:47;;;;;;;1.50;0.50;;;22.10;1.00;;;;;;5054928;28;20044;-65
2023/06/27 11:54:16;;;;;;;3.17;0.57;;;22.10;1.00;;;;;;5054938;28;20136;-65
2023/06/27 11:56:42;;;;;;;2.75;0.63;;;22.60;1.00;;;;;;5054661;28;20193;-64
2023/06/27 11:59:08;;;;;;;2.05;0.30;;;22.10;1.00;;;;;;5054900;28;20481;-65
2023/06/27 12:01:44;;;;;;;0.93;0.40;;;22.40;1.00;;;;;;5054857;28;20071;-65
2023/06/27 12:04:15;;;;;;;0.60;0.40;;;22.20;1.00;;;;;;5053301;28;20085;-65
2023/06/27 12:06:43;;;;;;;0.85;0.40;;;22.20;1.00;;;;;;5054797;28;20029;-64
2023/06/27 12:09:28;;;;;;;0.40;0.30;;;21.60;1.00;;;;;;5054790;28;20369;-65
2023/06/27 12:11:58;;;;;;;1.30;0.47;;;22.20;1.00;;;;;;5054647;28;20033;-65
2023/06/27 12:14:25;;;;;;;0.82;0.30;;;22.20;1.00;;;;;;5054614;28;20127;-65
2023/06/27 12:16:52;;;;;;;0.68;0.40;;;22.20;1.00;;;;;;5054624;28;20043;-64
2023/06/27 12:19:19;;;;;;;2.95;0.55;;;22.40;1.00;;;;;;5053218;28;20049;-65
2023/06/27 12:21:45;;;;;;;1.92;0.55;;;22.10;1.00;;;;;;5054191;28;20041;-65
2023/06/27 12:24:11;;;;;;;1.52;0.50;;;22.10;1.00;;;;;;5054098;28;20127;-65
2023/06/27 12:26:37;;;;;;;1.13;0.50;;;22.50;1.00;;;;;;5054007;28;20064;-64
2023/06/27 12:29:06;;;;;;;1.20;0.50;;;21.90;1.00;;;;;;5054276;28;20128;-65
2023/06/27 12:31:34;;;;;;;1.30;0.43;;;21.90;1.00;;;;;;5054258;28;20455;-65
2023/06/27 12:33:59;;;;;;;0.52;0.50;;;21.90;1.00;;;;;;5054226;28;20404;-65
2023/06/27 12:36:26;;;;;;;1.10;0.55;;;21.80;1.00;;;;;;5054070;28;20045;-65
2023/06/27 12:38:53;;;;;;;4.65;0.45;;;21.80;1.00;;;;;;5053760;28;20067;-65
2023/06/27 12:41:20;;;;;;;1.42;0.55;;;21.70;1.00;;;;;;5054045;28;20040;-65
2023/06/27 12:43:46;;;;;;;1.05;0.50;;;21.80;1.00;;;;;;5053975;28;20481;-65
2023/06/27 12:46:13;;;;;;;5.22;0.80;;;21.80;1.00;;;;;;5053925;28;20079;-65
2023/06/27 12:48:39;;;;;;;0.98;0.45;;;21.80;1.00;;;;;;5052666;28;20052;-65
2023/06/27 12:51:06;;;;;;;4.80;0.50;;;21.90;1.00;;;;;;5053921;28;20037;-65
2023/06/27 12:53:32;;;;;;;0.25;0.25;;;22.20;1.00;;;;;;5053911;28;20159;-65
2023/06/27 12:55:59;;;;;;;1.08;0.35;;;22.00;1.00;;;;;;5053552;28;20047;-65